createdAt,value
2022-08-17T00:01:52.381Z,19.50
2022-08-17T00:04:20.404Z,19.50
2022-08-17T00:06:50.604Z,19.50
2022-08-17T00:09:21.075Z,19.30
2022-08-17T00:12:41.309Z,19.30
2022-08-17T00:14:38.161Z,19.30
2022-08-17T00:17:06.548Z,19.30
2022-08-17T00:19:34.848Z,19.40
2022-08-17T00:22:34.376Z,19.40
2022-08-17T00:24:55.048Z,19.40
2022-08-17T00:27:23.114Z,19.30
2022-08-17T00:29:51.646Z,19.30
2022-08-17T00:33:15.122Z,19.30
2022-08-17T00:35:09.548Z,19.30
2022-08-17T00:37:39.245Z,19.20
2022-08-17T00:40:08.587Z,19.20
2022-08-17T00:42:37.087Z,19.20
2022-08-17T00:45:05.859Z,19.00
2022-08-17T00:47:34.091Z,19.20
2022-08-17T00:50:02.353Z,19.10
2022-08-17T00:52:36.703Z,19.10
2022-08-17T00:55:07.621Z,19.10
2022-08-17T00:57:37.800Z,19.10
2022-08-17T01:00:07.945Z,19.10
2022-08-17T01:02:50.887Z,19.20
2022-08-17T01:05:20.759Z,19.30
2022-08-17T01:07:51.046Z,19.30
2022-08-17T01:10:58.730Z,19.30
2022-08-17T01:13:11.564Z,19.30
2022-08-17T01:15:41.460Z,19.30
2022-08-17T01:18:14.913Z,19.30
2022-08-17T01:20:48.419Z,19.40
2022-08-17T01:23:20.718Z,19.50
2022-08-17T01:25:51.134Z,19.50
2022-08-17T01:28:33.618Z,19.60
2022-08-17T01:31:08.335Z,19.70
2022-08-17T01:33:36.471Z,19.90
2022-08-17T01:36:08.463Z,19.80
2022-08-17T01:38:38.623Z,19.90
2022-08-17T01:41:07.936Z,20.00
2022-08-17T01:43:41.094Z,20.00
2022-08-17T01:46:09.561Z,20.10
2022-08-17T01:48:40.194Z,20.00
2022-08-17T01:51:08.851Z,20.00
2022-08-17T01:53:40.968Z,20.10
2022-08-17T01:56:10.070Z,20.10
2022-08-17T01:58:38.776Z,20.10
2022-08-17T02:01:08.163Z,20.10
2022-08-17T02:03:37.038Z,20.10
2022-08-17T02:06:06.331Z,20.10
2022-08-17T02:09:01.696Z,20.10
2022-08-17T02:11:32.831Z,20.10
2022-08-17T02:14:03.360Z,20.00
2022-08-17T02:16:36.790Z,20.10
2022-08-17T02:19:07.675Z,20.10
2022-08-17T02:21:35.956Z,20.10
2022-08-17T02:24:06.335Z,20.00
2022-08-17T02:26:34.423Z,20.00
2022-08-17T02:29:04.312Z,20.10
2022-08-17T02:31:32.372Z,20.10
2022-08-17T02:34:04.538Z,20.10
2022-08-17T02:36:34.301Z,20.10
2022-08-17T02:39:02.627Z,20.10
2022-08-17T02:41:32.091Z,20.10
2022-08-17T02:44:00.555Z,20.10
2022-08-17T02:46:28.619Z,20.10
2022-08-17T02:48:56.675Z,20.10
2022-08-17T02:51:24.808Z,20.20
2022-08-17T02:54:03.889Z,20.10
2022-08-17T02:56:45.181Z,20.10
2022-08-17T02:59:13.203Z,20.10
2022-08-17T03:01:41.395Z,20.10
2022-08-17T03:04:09.850Z,20.10
2022-08-17T03:06:37.963Z,20.10
2022-08-17T03:09:06.031Z,20.20
2022-08-17T03:11:34.294Z,20.10
2022-08-17T03:14:03.715Z,20.10
2022-08-17T03:16:31.727Z,20.10
2022-08-17T03:19:01.620Z,20.10
2022-08-17T03:21:29.907Z,20.20
2022-08-17T03:23:58.282Z,20.10
2022-08-17T03:26:29.769Z,20.10
2022-08-17T03:28:58.168Z,20.20
2022-08-17T03:31:27.738Z,20.20
2022-08-17T03:33:56.508Z,20.20
2022-08-17T03:36:25.098Z,20.20
2022-08-17T03:38:53.181Z,20.20
2022-08-17T03:41:23.000Z,20.20
2022-08-17T03:43:51.266Z,20.20
2022-08-17T03:46:37.243Z,20.20
2022-08-17T03:49:24.550Z,19.80
2022-08-17T03:52:10.221Z,19.60
2022-08-17T03:54:56.144Z,19.40
2022-08-17T03:57:27.336Z,19.20
2022-08-17T03:59:55.819Z,19.00
2022-08-17T04:02:25.488Z,19.00
2022-08-17T04:04:55.631Z,19.10
2022-08-17T04:07:24.615Z,19.10
2022-08-17T04:09:52.693Z,19.20
2022-08-17T04:12:22.691Z,19.20
2022-08-17T04:14:55.006Z,19.30
2022-08-17T04:17:27.564Z,19.40
2022-08-17T04:19:57.588Z,19.50
2022-08-17T04:22:31.454Z,19.50
2022-08-17T04:25:02.668Z,19.70
2022-08-17T04:27:30.772Z,19.80
2022-08-17T04:29:59.213Z,19.90
2022-08-17T04:33:04.252Z,19.90
2022-08-17T04:35:20.219Z,20.00
2022-08-17T04:37:48.781Z,20.10
2022-08-17T04:40:34.561Z,20.20
2022-08-17T04:43:03.735Z,20.30
2022-08-17T04:45:32.193Z,20.40
2022-08-17T04:48:01.279Z,20.40
2022-08-17T04:50:31.100Z,20.40
2022-08-17T04:52:59.658Z,20.40
2022-08-17T04:55:27.875Z,20.40
2022-08-17T04:57:55.911Z,20.50
2022-08-17T05:00:26.065Z,20.50
2022-08-17T05:02:55.565Z,20.50
2022-08-17T05:05:25.004Z,20.60
2022-08-17T05:07:55.332Z,20.60
2022-08-17T05:10:24.040Z,20.70
2022-08-17T05:12:58.479Z,20.60
2022-08-17T05:15:36.034Z,20.60
2022-08-17T05:18:05.145Z,20.70
2022-08-17T05:20:33.830Z,20.70
2022-08-17T05:23:07.245Z,20.70
2022-08-17T05:25:36.443Z,20.70
2022-08-17T05:28:06.418Z,20.70
2022-08-17T05:30:35.139Z,20.70
2022-08-17T05:33:04.994Z,20.70
2022-08-17T05:35:34.410Z,20.70
2022-08-17T05:38:04.346Z,20.70
2022-08-17T05:40:33.201Z,20.70
2022-08-17T05:43:08.461Z,20.70
2022-08-17T05:45:54.610Z,20.70
2022-08-17T05:48:35.318Z,20.70
2022-08-17T05:51:14.587Z,20.80
2022-08-17T05:53:47.367Z,20.70
2022-08-17T05:56:29.242Z,20.80
2022-08-17T05:59:01.600Z,20.70
2022-08-17T06:01:32.089Z,20.80
2022-08-17T06:04:16.695Z,20.80
2022-08-17T06:06:48.112Z,20.80
2022-08-17T06:09:33.465Z,20.90
2022-08-17T06:12:04.822Z,20.90
2022-08-17T06:14:42.943Z,21.00
2022-08-17T06:17:13.007Z,21.00
2022-08-17T06:19:42.170Z,21.00
2022-08-17T06:22:13.045Z,21.00
2022-08-17T06:24:43.714Z,21.00
2022-08-17T06:27:14.963Z,21.00
2022-08-17T06:29:45.975Z,21.10
2022-08-17T06:32:14.916Z,21.10
2022-08-17T06:34:44.440Z,21.20
2022-08-17T06:37:21.406Z,21.20
2022-08-17T06:39:56.786Z,21.20
2022-08-17T06:43:02.035Z,21.20
2022-08-17T06:45:21.430Z,21.30
2022-08-17T06:47:51.806Z,21.30
2022-08-17T06:50:23.319Z,21.40
2022-08-17T06:52:53.709Z,21.40
2022-08-17T06:55:26.538Z,21.50
2022-08-17T06:57:56.785Z,21.50
2022-08-17T07:00:25.890Z,21.50
2022-08-17T07:02:56.821Z,21.50
2022-08-17T07:05:26.783Z,21.60
2022-08-17T07:19:26.273Z,21.50
2022-08-17T07:21:58.471Z,21.50
2022-08-17T07:24:31.079Z,21.60
2022-08-17T07:27:06.440Z,21.70
2022-08-17T07:29:41.095Z,21.70
2022-08-17T07:32:11.214Z,21.70
2022-08-17T07:34:57.640Z,21.70
2022-08-17T07:37:27.370Z,21.70
2022-08-17T07:39:59.554Z,21.70
2022-08-17T07:43:01.540Z,21.70
2022-08-17T07:45:49.146Z,21.80
2022-08-17T07:48:21.794Z,21.90
2022-08-17T07:50:50.838Z,22.20
2022-08-17T07:53:22.402Z,22.20
2022-08-17T07:55:51.802Z,22.30
2022-08-17T07:58:21.012Z,22.60
2022-08-17T08:01:04.529Z,23.00
2022-08-17T08:03:35.445Z,23.30
2022-08-17T08:06:22.315Z,23.40
2022-08-17T08:08:54.969Z,23.50
2022-08-17T08:11:33.827Z,23.40
2022-08-17T08:14:16.734Z,23.60
2022-08-17T08:16:56.894Z,23.40
2022-08-17T08:19:26.825Z,23.50
2022-08-17T08:22:01.900Z,23.30
2022-08-17T08:24:43.298Z,23.40
2022-08-17T08:27:16.102Z,23.40
2022-08-17T08:29:50.188Z,23.50
2022-08-17T08:32:21.065Z,23.80
2022-08-17T08:35:01.644Z,24.00
2022-08-17T08:37:42.005Z,23.90
2022-08-17T08:40:20.071Z,24.00
2022-08-17T08:42:53.646Z,24.00
2022-08-17T08:45:24.219Z,23.90
2022-08-17T08:48:05.295Z,24.00
2022-08-17T08:50:40.447Z,24.40
2022-08-17T08:53:12.019Z,24.50
2022-08-17T08:55:48.604Z,24.40
2022-08-17T08:58:31.673Z,24.50
2022-08-17T09:01:16.923Z,24.00
2022-08-17T09:04:19.506Z,23.80
2022-08-17T09:06:56.579Z,24.00
2022-08-17T09:09:27.448Z,24.00
2022-08-17T09:12:06.837Z,24.00
2022-08-17T09:14:49.898Z,24.10
2022-08-17T09:17:20.451Z,24.30
2022-08-17T09:19:51.581Z,24.70
2022-08-17T09:22:25.861Z,24.80
2022-08-17T09:24:58.513Z,25.00
2022-08-17T09:27:33.278Z,24.70
2022-08-17T09:30:04.118Z,24.80
2022-08-17T09:32:35.012Z,25.20
2022-08-17T09:35:09.050Z,24.80
2022-08-17T09:37:44.069Z,24.80
2022-08-17T09:40:15.689Z,24.90
2022-08-17T09:42:51.055Z,25.20
2022-08-17T09:45:33.216Z,25.80
2022-08-17T09:48:05.241Z,26.50
2022-08-17T09:51:03.894Z,26.50
2022-08-17T09:53:31.668Z,26.10
2022-08-17T09:56:08.000Z,25.90
2022-08-17T09:58:44.256Z,26.10
2022-08-17T10:01:30.554Z,26.20
2022-08-17T10:04:03.699Z,26.40
2022-08-17T10:06:33.940Z,26.30
2022-08-17T10:09:13.714Z,26.30
2022-08-17T10:12:02.659Z,26.60
2022-08-17T10:14:43.645Z,26.80
2022-08-17T10:17:20.585Z,27.00
2022-08-17T10:19:51.620Z,27.00
2022-08-17T10:22:40.025Z,27.20
2022-08-17T10:25:37.603Z,27.10
2022-08-17T10:28:19.993Z,27.20
2022-08-17T10:31:10.432Z,27.50
2022-08-17T10:33:50.035Z,27.40
2022-08-17T10:36:23.712Z,27.40
2022-08-17T10:39:00.596Z,27.50
2022-08-17T10:41:29.442Z,27.70
2022-08-17T10:44:40.322Z,27.80
2022-08-17T10:46:57.544Z,27.90
2022-08-17T10:49:34.050Z,27.70
2022-08-17T10:52:03.046Z,27.70
2022-08-17T10:54:35.824Z,27.90
2022-08-17T10:57:05.207Z,27.80
2022-08-17T10:59:50.583Z,27.90
2022-08-17T11:02:31.497Z,27.70
2022-08-17T11:05:07.071Z,28.00
2022-08-17T11:07:43.937Z,27.90
2022-08-17T11:10:20.340Z,28.10
2022-08-17T11:12:52.255Z,28.30
2022-08-17T11:15:26.186Z,28.30
2022-08-17T11:18:11.423Z,27.90
2022-08-17T11:20:59.739Z,28.10
2022-08-17T11:23:46.147Z,28.40
2022-08-17T11:26:26.426Z,28.50
2022-08-17T11:28:59.100Z,28.00
2022-08-17T11:31:37.920Z,27.70
2022-08-17T11:34:14.037Z,28.00
2022-08-17T11:36:49.368Z,28.20
2022-08-17T11:39:37.584Z,28.40
2022-08-17T11:42:06.705Z,28.50
2022-08-17T11:44:47.019Z,28.60
2022-08-17T11:47:36.143Z,28.30
2022-08-17T11:50:33.872Z,27.90
2022-08-17T11:53:02.566Z,27.90
2022-08-17T11:55:50.740Z,28.00
2022-08-17T11:58:37.803Z,27.80
2022-08-17T12:01:07.806Z,27.70
2022-08-17T12:03:55.352Z,27.70
2022-08-17T12:06:39.121Z,27.80
2022-08-17T12:09:10.476Z,27.90
2022-08-17T12:12:11.351Z,27.90
2022-08-17T12:14:58.526Z,28.20
2022-08-17T12:17:41.206Z,28.50
2022-08-17T12:20:15.219Z,29.10
2022-08-17T12:22:49.637Z,29.10
2022-08-17T12:25:21.156Z,29.10
2022-08-17T12:28:06.647Z,29.40
2022-08-17T12:30:38.550Z,28.00
2022-08-17T12:33:13.418Z,26.90
2022-08-17T12:35:59.478Z,26.80
2022-08-17T12:38:32.317Z,26.50
2022-08-17T12:41:24.653Z,26.80
2022-08-17T12:44:02.477Z,26.60
2022-08-17T12:46:33.756Z,26.60
2022-08-17T12:49:19.574Z,26.50
2022-08-17T12:51:48.073Z,26.20
2022-08-17T12:54:27.492Z,26.10
2022-08-17T12:56:57.125Z,26.60
2022-08-17T12:59:30.179Z,26.40
2022-08-17T13:01:58.988Z,26.40
2022-08-17T13:04:29.553Z,26.50
2022-08-17T13:07:00.286Z,26.00
2022-08-17T13:09:36.029Z,25.90
2022-08-17T13:13:34.831Z,25.70
2022-08-17T13:16:04.018Z,26.10
2022-08-17T13:18:39.926Z,26.20
2022-08-17T13:21:12.411Z,26.00
2022-08-17T13:23:50.881Z,25.70
2022-08-17T13:26:27.844Z,25.70
2022-08-17T13:28:57.398Z,26.20
2022-08-17T13:31:38.560Z,26.20
2022-08-17T13:34:32.207Z,27.00
2022-08-17T13:37:21.210Z,27.20
2022-08-17T13:39:51.330Z,26.50
2022-08-17T13:42:52.023Z,26.60
2022-08-17T13:45:50.738Z,26.80
2022-08-17T13:48:29.788Z,27.20
2022-08-17T13:51:13.854Z,27.70
2022-08-17T13:53:55.640Z,27.60
2022-08-17T13:56:38.571Z,27.60
2022-08-17T13:59:08.071Z,27.70
2022-08-17T14:01:39.367Z,27.80
2022-08-17T14:04:08.729Z,27.80
2022-08-17T14:18:07.188Z,28.10
2022-08-17T14:20:40.031Z,28.30
2022-08-17T14:23:14.628Z,28.50
2022-08-17T14:25:42.590Z,28.60
2022-08-17T14:28:10.580Z,28.00
2022-08-17T14:30:39.198Z,27.50
2022-08-17T14:33:09.831Z,27.50
2022-08-17T14:35:38.144Z,27.60
2022-08-17T14:38:06.151Z,27.60
2022-08-17T14:40:35.306Z,27.60
2022-08-17T14:43:03.412Z,27.80
2022-08-17T14:45:32.809Z,27.10
2022-08-17T14:48:02.758Z,27.20
2022-08-17T14:50:35.558Z,27.60
2022-08-17T14:53:04.690Z,27.50
2022-08-17T14:55:32.889Z,27.70
2022-08-17T14:58:00.874Z,27.50
2022-08-17T15:00:29.106Z,27.70
2022-08-17T15:02:58.493Z,27.10
2022-08-17T15:05:27.706Z,26.80
2022-08-17T15:07:57.372Z,27.00
2022-08-17T15:10:27.716Z,27.40
2022-08-17T15:12:58.326Z,27.40
2022-08-17T15:15:26.524Z,26.60
2022-08-17T15:17:54.558Z,26.30
2022-08-17T15:20:27.052Z,26.70
2022-08-17T15:22:57.252Z,26.60
2022-08-17T15:25:27.641Z,26.70
2022-08-17T15:27:56.205Z,26.30
2022-08-17T15:30:25.826Z,26.40
2022-08-17T15:32:55.587Z,27.00
2022-08-17T15:35:28.305Z,27.00
2022-08-17T15:38:07.920Z,27.00
2022-08-17T15:40:40.685Z,26.60
2022-08-17T15:43:11.418Z,26.50
2022-08-17T15:45:40.339Z,26.80
2022-08-17T15:48:12.124Z,26.90
2022-08-17T15:50:40.142Z,26.80
2022-08-17T15:53:08.317Z,26.70
2022-08-17T15:55:37.058Z,27.00
2022-08-17T15:58:08.433Z,27.30
2022-08-17T16:00:50.990Z,27.60
2022-08-17T16:04:01.591Z,27.60
2022-08-17T16:06:09.904Z,27.90
2022-08-17T16:08:41.733Z,27.60
2022-08-17T16:11:11.081Z,27.30
2022-08-17T16:13:41.678Z,27.00
2022-08-17T16:16:16.306Z,26.70
2022-08-17T16:18:44.924Z,26.90
2022-08-17T16:21:27.793Z,26.60
2022-08-17T16:24:04.612Z,26.80
2022-08-17T16:26:33.723Z,26.80
2022-08-17T16:29:04.427Z,27.00
2022-08-17T16:31:32.484Z,26.10
2022-08-17T16:34:17.876Z,26.30
2022-08-17T16:36:55.363Z,26.10
2022-08-17T16:39:25.157Z,26.10
2022-08-17T16:45:28.069Z,26.20
2022-08-17T16:48:01.821Z,26.10
2022-08-17T16:50:29.801Z,26.00
2022-08-17T16:53:03.574Z,25.80
2022-08-17T16:55:31.506Z,25.50
2022-08-17T16:58:00.238Z,25.60
2022-08-17T17:00:30.011Z,25.60
2022-08-17T17:03:17.747Z,25.40
2022-08-17T17:05:56.226Z,25.20
2022-08-17T17:08:28.221Z,25.00
2022-08-17T17:11:03.421Z,24.90
2022-08-17T17:13:33.441Z,24.70
2022-08-17T17:16:10.304Z,24.70
2022-08-17T17:18:41.171Z,24.70
2022-08-17T17:21:14.506Z,25.10
2022-08-17T17:23:46.494Z,25.10
2022-08-17T17:26:37.006Z,25.20
2022-08-17T17:29:14.318Z,24.90
2022-08-17T17:31:56.715Z,25.10
2022-08-17T17:34:26.899Z,25.10
2022-08-17T17:36:58.083Z,25.10
2022-08-17T17:39:32.061Z,24.80
2022-08-17T17:42:00.950Z,24.90
2022-08-17T17:44:31.908Z,25.10
2022-08-17T17:47:02.809Z,25.20
2022-08-17T17:49:32.102Z,25.30
2022-08-17T17:52:11.059Z,25.20
2022-08-17T17:54:47.883Z,25.00
2022-08-17T17:57:21.496Z,24.40
2022-08-17T17:59:52.556Z,24.00
2022-08-17T18:02:52.770Z,23.90
2022-08-17T18:05:44.310Z,24.10
2022-08-17T18:08:34.858Z,24.30
2022-08-17T18:11:07.869Z,24.30
2022-08-17T18:13:43.647Z,24.30
2022-08-17T18:16:15.163Z,24.00
2022-08-17T18:18:47.647Z,24.10
2022-08-17T18:21:21.386Z,24.10
2022-08-17T18:23:57.105Z,23.70
2022-08-17T18:26:42.525Z,23.70
2022-08-17T18:29:22.919Z,23.60
2022-08-17T18:32:11.031Z,23.60
2022-08-17T18:34:47.802Z,23.40
2022-08-17T18:37:30.773Z,22.70
2022-08-17T18:39:59.089Z,22.60
2022-08-17T18:42:28.087Z,22.80
2022-08-17T18:44:59.273Z,23.00
2022-08-17T18:47:28.169Z,23.20
2022-08-17T18:50:00.611Z,23.30
2022-08-17T18:52:30.405Z,23.20
2022-08-17T18:55:10.064Z,23.10
2022-08-17T18:57:43.483Z,23.20
2022-08-17T19:00:12.796Z,22.90
2022-08-17T19:02:50.735Z,22.80
2022-08-17T19:05:32.859Z,22.80
2022-08-17T19:08:18.814Z,22.70
2022-08-17T19:10:47.906Z,22.80
2022-08-17T19:13:24.152Z,22.70
2022-08-17T19:16:10.080Z,22.50
2022-08-17T19:18:46.033Z,22.50
2022-08-17T19:21:17.410Z,22.70
2022-08-17T19:23:53.334Z,22.70
2022-08-17T19:26:50.730Z,22.60
2022-08-17T19:29:16.696Z,22.60
2022-08-17T19:31:51.447Z,22.60
2022-08-17T19:34:30.167Z,22.60
2022-08-17T19:37:09.100Z,22.60
2022-08-17T19:39:40.891Z,22.60
2022-08-17T19:42:12.485Z,22.60
2022-08-17T19:44:46.517Z,22.60
2022-08-17T19:47:36.225Z,22.70
2022-08-17T19:50:11.875Z,22.60
2022-08-17T19:52:48.414Z,22.40
2022-08-17T19:55:23.227Z,22.40
2022-08-17T19:57:58.806Z,22.40
2022-08-17T20:00:27.413Z,22.30
2022-08-17T20:02:56.269Z,22.40
2022-08-17T20:05:30.330Z,22.40
2022-08-17T20:08:02.062Z,22.30
2022-08-17T20:10:36.584Z,22.10
2022-08-17T20:13:08.637Z,22.20
2022-08-17T20:15:38.010Z,22.10
2022-08-17T20:18:16.151Z,22.20
2022-08-17T20:20:50.248Z,22.10
2022-08-17T20:23:43.867Z,22.10
2022-08-17T20:26:19.136Z,22.10
2022-08-17T20:29:07.773Z,22.00
2022-08-17T20:31:49.105Z,21.90
2022-08-17T20:34:37.073Z,21.80
2022-08-17T20:37:10.485Z,21.80
2022-08-17T20:39:44.504Z,21.70
2022-08-17T20:42:29.533Z,21.70
2022-08-17T20:45:02.812Z,21.80
2022-08-17T20:47:32.692Z,21.70
2022-08-17T20:50:03.288Z,21.60
2022-08-17T20:53:01.175Z,21.60
2022-08-17T20:55:53.106Z,21.60
2022-08-17T20:58:48.154Z,21.50
2022-08-17T21:01:24.425Z,21.40
2022-08-17T21:03:54.482Z,21.50
2022-08-17T21:06:23.907Z,21.50
2022-08-17T21:08:58.054Z,21.50
2022-08-17T21:12:02.240Z,21.40
2022-08-17T21:14:42.051Z,21.40
2022-08-17T21:17:29.810Z,21.30
2022-08-17T21:20:17.396Z,21.30
2022-08-17T21:22:53.071Z,21.20
2022-08-17T21:25:29.871Z,21.10
2022-08-17T21:28:02.304Z,21.00
2022-08-17T21:30:47.704Z,21.00
2022-08-17T21:33:25.106Z,21.00
2022-08-17T21:35:58.791Z,21.00
2022-08-17T21:38:34.502Z,21.00
2022-08-17T21:41:02.832Z,20.90
2022-08-17T21:43:33.138Z,20.80
2022-08-17T21:46:02.450Z,20.80
2022-08-17T21:48:32.694Z,20.70
2022-08-17T21:51:03.799Z,20.70
2022-08-17T21:53:36.650Z,20.60
2022-08-17T21:56:09.352Z,20.60
2022-08-17T21:58:40.649Z,20.50
2022-08-17T22:01:25.956Z,20.50
2022-08-17T22:04:04.441Z,20.40
2022-08-17T22:06:35.321Z,20.40
2022-08-17T22:09:11.685Z,20.50
2022-08-17T22:12:10.906Z,20.40
2022-08-17T22:14:52.913Z,20.40
2022-08-17T22:17:23.606Z,20.50
2022-08-17T22:19:54.840Z,20.40
2022-08-17T22:22:30.989Z,20.40
2022-08-17T22:25:06.334Z,20.40
2022-08-17T22:27:48.680Z,20.40
2022-08-17T22:30:34.187Z,20.40
2022-08-17T22:33:22.211Z,20.40
2022-08-17T22:36:08.931Z,20.50
2022-08-17T22:38:39.096Z,20.50
2022-08-17T22:41:31.478Z,20.40
2022-08-17T22:44:02.434Z,20.40
2022-08-17T22:46:30.696Z,20.40
2022-08-17T22:49:00.499Z,20.40
2022-08-17T22:51:35.984Z,20.30
2022-08-17T22:54:31.771Z,20.40
2022-08-17T22:57:19.127Z,20.20
2022-08-17T22:59:49.097Z,20.20
2022-08-17T23:02:21.951Z,20.10
2022-08-17T23:04:51.939Z,20.10
2022-08-17T23:07:22.213Z,20.10
2022-08-17T23:09:52.329Z,20.10
2022-08-17T23:12:24.123Z,20.00
2022-08-17T23:15:02.140Z,20.00
2022-08-17T23:17:35.083Z,20.00
2022-08-17T23:20:05.771Z,19.90
2022-08-17T23:22:35.363Z,19.80
2022-08-17T23:25:03.765Z,19.80
2022-08-17T23:27:31.778Z,19.80
2022-08-17T23:29:59.785Z,19.80
2022-08-17T23:32:28.676Z,20.00
2022-08-17T23:35:01.624Z,19.80
2022-08-17T23:37:29.967Z,19.70
2022-08-17T23:39:59.637Z,19.80
2022-08-17T23:42:28.522Z,19.80
2022-08-17T23:44:58.933Z,19.90
2022-08-17T23:47:26.883Z,19.80
2022-08-17T23:49:55.016Z,19.70
2022-08-17T23:52:23.257Z,19.80
2022-08-17T23:54:51.279Z,19.80
2022-08-17T23:57:33.234Z,19.60
